Time;durP1;ratioP1;P1;durP2;ratioP2;P2;SDS_P1;SDS_P2;PMS_P1;PMS_P2;Temp;Humidity;BMP_temperature;BMP_pressure;BME280_temperature;BME280_humidity;BME280_pressure;Samples;Min_cycle;Max_cycle;Signal;HPM_P1;HPM_P2
2022/10/31 00:01:59;;;;;;;2.77;2.30;;;;;;;12.47;93.19;101991.56;5076352;28;20035;-85
2022/10/31 00:04:25;;;;;;;3.73;2.63;;;;;;;12.44;93.72;101994.22;5076110;28;20033;-85
2022/10/31 00:06:50;;;;;;;3.33;2.73;;;;;;;12.42;93.16;101995.97;5075531;28;20121;-85
2022/10/31 00:09:15;;;;;;;3.93;2.63;;;;;;;12.40;93.65;101989.88;5075401;28;20037;-85
2022/10/31 00:11:40;;;;;;;2.73;2.30;;;;;;;12.36;93.32;101999.44;5076075;28;20025;-85
2022/10/31 00:14:06;;;;;;;3.43;2.50;;;;;;;12.32;93.42;101992.50;5075589;28;20443;-85
2022/10/31 00:16:31;;;;;;;4.37;2.57;;;;;;;12.27;93.42;101997.75;5075323;28;20031;-85
2022/10/31 00:19:02;;;;;;;6.77;3.60;;;;;;;12.22;94.33;101993.44;5075959;28;20027;-85
2022/10/31 00:21:29;;;;;;;5.00;3.10;;;;;;;12.19;94.07;101996.91;5075651;28;20028;-85
2022/10/31 00:23:54;;;;;;;;;;;;;;;12.15;94.11;102001.28;5075348;28;20029;-84
2022/10/31 00:26:20;;;;;;;5.13;2.97;;;;;;;12.11;94.21;101998.66;5075885;28;19919;-85
2022/10/31 00:28:45;;;;;;;4.83;2.87;;;;;;;12.10;94.13;102003.00;5075554;28;20028;-85
2022/10/31 00:31:12;;;;;;;4.63;3.00;;;;;;;12.05;94.71;102000.41;5074962;28;20021;-85
2022/10/31 00:33:38;;;;;;;5.38;3.20;;;;;;;12.02;94.11;102000.41;5075539;28;20024;-85
2022/10/31 00:36:04;;;;;;;;;;;;;;;12.01;94.26;102003.03;5075244;28;20039;-84
2022/10/31 00:38:30;;;;;;;5.55;3.28;;;;;;;11.99;93.72;101996.97;5074481;28;19913;-85
2022/10/31 00:40:56;;;;;;;4.18;2.92;;;;;;;11.96;93.58;101987.41;5075363;28;20025;-85
2022/10/31 00:43:21;;;;;;;4.40;2.93;;;;;;;11.95;93.62;101990.00;5075110;28;20515;-84
2022/10/31 00:45:46;;;;;;;5.07;2.87;;;;;;;11.93;93.80;101986.56;5075288;28;20020;-85
2022/10/31 00:48:12;;;;;;;5.30;3.40;;;;;;;11.88;95.27;101979.63;5074778;28;20111;-85
2022/10/31 00:50:38;;;;;;;4.90;3.03;;;;;;;11.86;94.23;101980.50;5074989;28;20096;-85
2022/10/31 00:53:03;;;;;;;6.33;3.53;;;;;;;11.83;95.08;101983.97;5075207;28;20056;-85
2022/10/31 00:55:29;;;;;;;5.37;3.10;;;;;;;11.82;94.34;101979.63;5075362;28;20299;-84
2022/10/31 00:57:54;;;;;;;3.53;2.77;;;;;;;11.81;94.00;101987.44;5074325;28;20040;-85
2022/10/31 01:00:19;;;;;;;3.90;2.80;;;;;;;11.81;94.12;101983.13;5075154;28;20066;-85
2022/10/31 01:02:45;;;;;;;4.97;2.90;;;;;;;11.80;94.22;101989.19;5074684;28;20086;-85
2022/10/31 01:05:11;;;;;;;4.13;2.80;;;;;;;11.81;93.80;102001.31;5074306;28;20416;-85
2022/10/31 01:07:39;;;;;;;3.55;2.72;;;;;;;11.82;93.97;101991.78;5074995;28;20025;-85
2022/10/31 01:10:05;;;;;;;5.18;3.10;;;;;;;11.80;94.41;101986.59;5074724;28;20028;-85
2022/10/31 01:12:38;;;;;;;;;;;;;;;11.80;94.25;101981.38;5074547;28;20060;-85
2022/10/31 01:15:04;;;;;;;4.10;2.90;;;;;;;11.74;94.27;101964.06;5074494;28;19912;-84
2022/10/31 01:17:29;;;;;;;3.73;2.90;;;;;;;11.69;94.39;101960.59;5074563;28;20029;-85
2022/10/31 01:19:54;;;;;;;6.57;3.90;;;;;;;11.66;96.38;101957.97;5074085;28;20024;-84
2022/10/31 01:22:20;;;;;;;9.87;4.77;;;;;;;11.62;96.74;101956.28;5074520;28;20024;-85
2022/10/31 01:24:45;;;;;;;7.30;4.20;;;;;;;11.59;95.37;101964.06;5074370;28;20071;-84
2022/10/31 01:27:10;;;;;;;6.30;3.53;;;;;;;11.58;95.05;101971.03;5074094;28;20028;-85
2022/10/31 01:29:36;;;;;;;4.50;3.20;;;;;;;11.59;95.18;101966.66;5074732;28;20455;-85
2022/10/31 01:32:01;;;;;;;4.20;3.07;;;;;;;11.58;94.93;101971.03;5073566;28;20020;-84
2022/10/31 01:34:26;;;;;;;3.93;2.80;;;;;;;11.58;94.74;101967.53;5074002;28;20028;-84
2022/10/31 01:36:51;;;;;;;3.57;2.80;;;;;;;11.57;94.75;101966.69;5074257;28;20024;-85
2022/10/31 01:39:18;;;;;;;4.00;2.70;;;;;;;11.56;94.67;101970.16;5074299;28;20040;-84
2022/10/31 01:41:49;;;;;;;5.55;3.20;;;;;;;11.56;94.64;101975.34;5073972;28;20117;-85
2022/10/31 01:44:14;;;;;;;4.30;2.97;;;;;;;11.56;94.55;101971.88;5074366;28;20021;-85
2022/10/31 01:46:56;;;;;;;4.20;2.70;;;;;;;11.57;94.21;101976.19;5073834;28;20495;-84
2022/10/31 01:49:33;;;;;;;5.53;3.20;;;;;;;11.54;94.24;101978.84;5074352;28;20112;-84
2022/10/31 01:52:08;;;;;;;4.32;3.17;;;;;;;11.52;94.27;101977.97;5073662;28;20024;-85
2022/10/31 01:54:39;;;;;;;3.97;2.92;;;;;;;11.50;93.79;101974.50;5073558;28;20446;-85
2022/10/31 01:57:07;;;;;;;4.05;3.00;;;;;;;11.47;94.34;101980.56;5073709;28;20024;-84
2022/10/31 01:59:38;;;;;;;4.75;3.15;;;;;;;11.43;94.04;101973.63;5073975;28;20507;-85
2022/10/31 02:02:03;;;;;;;5.68;3.13;;;;;;;11.40;94.29;101984.00;5072940;28;20052;-85
2022/10/31 02:04:29;;;;;;;4.57;3.10;;;;;;;11.39;94.10;101979.69;5073809;28;20106;-84
2022/10/31 02:07:09;;;;;;;3.77;2.80;;;;;;;11.34;94.15;101971.88;5073677;28;20050;-84
2022/10/31 02:09:37;;;;;;;4.35;2.80;;;;;;;11.32;94.21;101971.03;5072676;28;20032;-85
2022/10/31 02:12:03;;;;;;;4.25;3.00;;;;;;;11.30;94.25;101967.56;5072926;28;20024;-85
2022/10/31 02:14:30;;;;;;;4.33;2.83;;;;;;;11.27;94.40;101958.03;5073374;28;20026;-85
2022/10/31 02:16:55;;;;;;;4.65;2.92;;;;;;;11.23;94.16;101956.31;5072704;28;20540;-85
2022/10/31 02:19:36;;;;;;;5.60;3.20;;;;;;;11.19;94.11;101953.72;5073474;28;20115;-85
2022/10/31 02:22:47;;;;;;;5.32;3.17;;;;;;;11.15;94.36;101960.63;5072361;28;20025;-85
2022/10/31 02:25:35;;;;;;;4.93;3.10;;;;;;;11.11;94.20;101956.31;5057607;28;20040;-85
2022/10/31 02:28:26;;;;;;;4.28;3.00;;;;;;;11.06;94.21;101958.91;5073150;28;20103;-85
2022/10/31 02:31:42;;;;;;;4.72;2.75;;;;;;;11.01;94.23;101955.44;5072460;28;20024;-84
2022/10/31 02:34:20;;;;;;;4.60;3.10;;;;;;;10.96;94.05;101955.44;5011266;28;20382;-85
2022/10/31 02:36:56;;;;;;;4.50;3.10;;;;;;;10.91;94.29;101953.69;5071844;28;20079;-84
2022/10/31 02:39:30;;;;;;;4.97;3.20;;;;;;;10.88;94.19;101957.16;5073107;28;20054;-85
2022/10/31 02:42:03;;;;;;;5.50;3.30;;;;;;;10.87;94.34;101958.03;5073409;28;20021;-85
2022/10/31 02:44:43;;;;;;;4.72;3.17;;;;;;;10.85;94.62;101954.56;5072809;28;20385;-85
2022/10/31 02:47:17;;;;;;;5.20;3.20;;;;;;;10.82;94.29;101955.41;5072886;28;20089;-85
2022/10/31 02:49:53;;;;;;;5.38;3.30;;;;;;;10.82;94.27;101957.13;5072380;28;20024;-84
2022/10/31 02:52:24;;;;;;;5.70;3.25;;;;;;;10.81;94.18;101955.41;5072790;28;20142;-85
2022/10/31 02:54:50;;;;;;;6.38;3.30;;;;;;;10.77;93.99;101953.69;5072098;28;20123;-84
2022/10/31 02:57:20;;;;;;;4.60;3.20;;;;;;;10.74;94.42;101953.66;5072025;28;20502;-84
2022/10/31 02:59:54;;;;;;;5.78;3.38;;;;;;;10.73;94.43;101957.13;5072616;28;20440;-84
2022/10/31 03:02:27;;;;;;;5.00;3.45;;;;;;;10.74;94.21;101953.66;5072686;28;20033;-84
2022/10/31 03:05:19;;;;;;;5.85;3.30;;;;;;;10.71;94.35;101959.72;5072083;28;20416;-84
2022/10/31 03:08:00;;;;;;;8.15;3.50;;;;;;;10.66;94.22;101964.91;5072395;28;20400;-84
2022/10/31 03:10:47;;;;;;;4.78;3.00;;;;;;;10.64;94.26;101960.56;5072853;28;20042;-84
2022/10/31 03:13:37;;;;;;;4.47;3.08;;;;;;;10.61;94.29;101955.38;5072097;28;20099;-84
2022/10/31 03:16:19;;;;;;;3.80;3.00;;;;;;;10.58;94.28;101963.16;5072289;28;20032;-84
2022/10/31 03:18:57;;;;;;;3.90;2.80;;;;;;;10.54;94.27;101959.69;5072059;28;20029;-84
2022/10/31 03:21:30;;;;;;;3.58;2.70;;;;;;;10.50;94.22;101966.59;5072971;28;20439;-84
2022/10/31 03:23:57;;;;;;;3.50;2.70;;;;;;;10.48;94.38;101962.25;5072368;28;20085;-84
2022/10/31 03:26:24;;;;;;;3.45;2.35;;;;;;;10.44;94.33;101952.72;5071945;28;20025;-84
2022/10/31 03:28:54;;;;;;;3.08;2.45;;;;;;;10.42;94.73;101962.25;5072382;28;20124;-85
2022/10/31 03:31:26;;;;;;;3.50;2.50;;;;;;;10.42;94.50;101954.44;5072356;28;20024;-84
2022/10/31 03:33:53;;;;;;;4.13;2.72;;;;;;;10.44;94.53;101960.53;5072161;28;20095;-84
2022/10/31 03:36:18;;;;;;;;;;;;;;;10.44;94.77;101953.59;5072721;28;20039;-85
2022/10/31 03:38:46;;;;;;;4.40;2.80;;;;;;;10.43;94.66;101951.84;5072361;28;19920;-85
2022/10/31 03:41:17;;;;;;;4.65;3.08;;;;;;;10.45;94.70;101954.47;5071641;28;20674;-84
2022/10/31 03:43:48;;;;;;;3.63;2.95;;;;;;;10.43;94.70;101953.59;5072629;28;20111;-84
2022/10/31 03:46:13;;;;;;;4.03;2.80;;;;;;;10.42;94.71;101959.66;5072199;28;20020;-84
2022/10/31 03:48:39;;;;;;;3.50;2.63;;;;;;;10.39;94.79;101950.13;5072415;28;20040;-84
2022/10/31 03:51:19;;;;;;;2.83;2.57;;;;;;;10.39;94.90;101951.84;5071908;28;20025;-84
2022/10/31 03:54:08;;;;;;;5.18;3.00;;;;;;;10.40;94.88;101957.06;5071869;28;20025;-84
2022/10/31 03:56:40;;;;;;;4.00;2.70;;;;;;;10.40;94.97;101949.28;5072500;28;20070;-85
2022/10/31 03:59:17;;;;;;;2.97;2.60;;;;;;;10.39;94.84;101951.84;5072040;28;20058;-85
2022/10/31 04:01:48;;;;;;;4.28;2.72;;;;;;;10.35;95.04;101944.03;5072120;28;20095;-85
2022/10/31 04:04:14;;;;;;;4.25;2.60;;;;;;;10.34;95.04;101947.50;5072082;28;20566;-84
2022/10/31 04:06:42;;;;;;;3.67;2.60;;;;;;;10.34;95.03;101939.72;5072052;28;20086;-85
2022/10/31 04:09:09;;;;;;;4.20;2.78;;;;;;;10.34;94.90;101946.59;5071442;28;20469;-84
2022/10/31 04:11:42;;;;;;;5.05;2.95;;;;;;;10.35;95.03;101948.34;5072273;28;20037;-84
2022/10/31 04:14:09;;;;;;;4.18;2.95;;;;;;;10.32;95.06;101951.81;5071757;28;20377;-85
2022/10/31 04:16:35;;;;;;;4.38;2.83;;;;;;;10.30;94.83;101961.31;5071671;28;20056;-84
2022/10/31 04:19:01;;;;;;;4.63;2.80;;;;;;;10.30;95.03;101965.63;5071888;28;20061;-85
2022/10/31 04:21:28;;;;;;;4.70;2.80;;;;;;;10.28;94.99;101960.41;5071510;28;20384;-84
2022/10/31 04:23:54;;;;;;;4.72;3.10;;;;;;;10.27;95.04;101960.44;5072177;28;20031;-86
2022/10/31 04:26:19;;;;;;;5.07;3.03;;;;;;;10.24;94.87;101958.69;5071850;28;20024;-84
2022/10/31 04:28:44;;;;;;;5.73;2.97;;;;;;;10.22;95.08;101955.22;5071954;28;20027;-84
2022/10/31 04:31:11;;;;;;;4.37;2.87;;;;;;;10.22;95.01;101954.34;5071867;28;20024;-84
2022/10/31 04:33:36;;;;;;;4.63;2.95;;;;;;;10.22;95.13;101952.63;5073545;28;20062;-85
2022/10/31 04:36:02;;;;;;;3.10;2.50;;;;;;;10.23;95.27;101963.84;5074453;28;20041;-84
2022/10/31 04:38:27;;;;;;;3.97;2.70;;;;;;;10.23;95.32;101956.97;5075554;28;20024;-85
2022/10/31 04:40:52;;;;;;;3.70;2.67;;;;;;;10.24;95.25;101961.28;5074824;28;20033;-85
2022/10/31 04:43:18;;;;;;;3.50;2.50;;;;;;;10.26;95.23;101962.13;5074801;28;20025;-84
2022/10/31 04:45:43;;;;;;;3.53;2.50;;;;;;;10.27;95.35;101958.69;5075408;28;20036;-85
2022/10/31 04:48:08;;;;;;;3.23;2.40;;;;;;;10.28;95.32;101955.22;5075038;28;20580;-85
2022/10/31 04:50:33;;;;;;;3.90;2.50;;;;;;;10.28;95.25;101955.22;5075012;28;20028;-86
2022/10/31 04:52:59;;;;;;;3.87;2.50;;;;;;;10.31;95.45;101952.66;5074948;28;20021;-85
2022/10/31 04:55:24;;;;;;;4.73;2.53;;;;;;;10.31;95.46;101949.19;5074716;28;20464;-85
2022/10/31 04:57:52;;;;;;;3.67;2.80;;;;;;;10.30;95.57;101948.31;5074539;28;20077;-85
2022/10/31 05:00:19;;;;;;;3.33;2.60;;;;;;;10.32;95.25;101954.41;5075161;28;20123;-85
2022/10/31 05:02:49;;;;;;;4.53;2.90;;;;;;;10.33;95.47;101955.25;5074768;28;20024;-84
2022/10/31 05:05:16;;;;;;;4.45;2.90;;;;;;;10.33;95.34;101947.47;5074686;28;20036;-85
2022/10/31 05:07:43;;;;;;;4.03;2.83;;;;;;;10.33;95.45;101942.28;5075401;28;20032;-85
2022/10/31 05:10:09;;;;;;;;;;;;;;;10.31;95.31;101944.88;5075089;28;20074;-84
2022/10/31 05:12:35;;;;;;;4.70;3.10;;;;;;;10.30;95.29;101937.94;5074401;28;20334;-85
2022/10/31 05:15:00;;;;;;;4.53;2.90;;;;;;;10.27;95.69;101932.75;5074495;28;20028;-84
2022/10/31 05:17:25;;;;;;;5.50;3.00;;;;;;;10.24;95.26;101932.75;5074740;28;20028;-85
2022/10/31 05:19:51;;;;;;;4.23;2.90;;;;;;;10.22;95.42;101926.69;5074065;28;20385;-85
2022/10/31 05:22:16;;;;;;;4.97;3.20;;;;;;;10.23;95.16;101938.81;5074782;28;20021;-85
2022/10/31 05:24:41;;;;;;;4.73;3.13;;;;;;;10.21;95.42;101937.94;5074996;28;20024;-85
2022/10/31 05:27:06;;;;;;;5.23;3.23;;;;;;;10.18;95.32;101938.78;5074274;28;20126;-84
2022/10/31 05:29:33;;;;;;;4.27;2.90;;;;;;;10.16;95.40;101940.50;5073989;28;20491;-85
2022/10/31 05:31:58;;;;;;;5.25;3.10;;;;;;;10.14;95.46;101939.63;5073916;28;20032;-85
2022/10/31 05:34:24;;;;;;;5.00;3.10;;;;;;;10.12;95.62;101935.28;5074619;28;20028;-85
2022/10/31 05:36:49;;;;;;;5.27;3.20;;;;;;;10.09;95.70;101930.94;5073964;28;20024;-84
2022/10/31 05:39:14;;;;;;;4.57;3.03;;;;;;;10.08;95.73;101934.38;5073913;28;20027;-85
2022/10/31 05:41:39;;;;;;;4.30;2.90;;;;;;;10.09;95.56;101937.88;5074382;28;20177;-83
2022/10/31 05:44:05;;;;;;;4.43;3.00;;;;;;;10.08;95.82;101928.34;5072972;28;20472;-83
2022/10/31 05:46:30;;;;;;;5.40;2.90;;;;;;;10.07;95.82;101929.22;5073024;28;20028;-84
2022/10/31 05:48:55;;;;;;;5.87;3.43;;;;;;;10.05;95.77;101921.44;5074061;28;20054;-84
2022/10/31 05:51:21;;;;;;;4.53;3.00;;;;;;;10.07;95.84;101926.63;5074428;28;20024;-82
2022/10/31 05:53:47;;;;;;;5.13;3.33;;;;;;;10.06;95.69;101928.34;5074004;28;20024;-82
2022/10/31 05:56:12;;;;;;;4.97;3.15;;;;;;;10.06;95.87;101928.34;5073431;28;20101;-82
2022/10/31 05:58:38;;;;;;;5.17;3.13;;;;;;;10.05;95.68;101919.69;5073729;28;20454;-82
2022/10/31 06:01:03;;;;;;;4.30;2.80;;;;;;;10.03;95.92;101918.81;5073323;28;20081;-82
2022/10/31 06:03:28;;;;;;;5.00;3.13;;;;;;;10.04;95.98;101919.69;5073851;28;20051;-82
2022/10/31 06:05:53;;;;;;;4.97;3.00;;;;;;;10.03;96.01;101915.38;5073148;28;20029;-81
2022/10/31 06:08:19;;;;;;;4.70;2.60;;;;;;;9.97;96.27;101913.63;5073146;28;20024;-82
2022/10/31 06:10:44;;;;;;;4.00;2.87;;;;;;;9.98;96.39;101915.34;5073650;28;20028;-82
2022/10/31 06:13:09;;;;;;;5.30;2.97;;;;;;;9.98;95.95;101914.47;5073373;28;20025;-82
2022/10/31 06:15:34;;;;;;;6.10;3.27;;;;;;;9.97;96.22;101910.13;5073097;28;20047;-85
2022/10/31 06:18:02;;;;;;;4.80;2.97;;;;;;;9.96;96.39;101904.09;5072580;28;20025;-85
2022/10/31 06:20:27;;;;;;;6.72;3.42;;;;;;;9.95;96.14;101906.69;5073544;28;20024;-84
2022/10/31 06:22:53;;;;;;;6.67;3.60;;;;;;;9.96;96.38;101911.88;5072883;28;20028;-85
2022/10/31 06:25:18;;;;;;;8.17;4.10;;;;;;;9.96;96.04;101911.03;5073716;28;20055;-85
2022/10/31 06:27:43;;;;;;;6.50;3.77;;;;;;;9.97;95.99;101908.44;5072844;28;20028;-84
2022/10/31 06:30:09;;;;;;;6.87;3.73;;;;;;;9.97;96.05;101907.53;5072282;28;20025;-85
2022/10/31 06:32:34;;;;;;;6.50;3.63;;;;;;;9.99;96.51;101916.19;5072747;28;20023;-83
2022/10/31 06:35:00;;;;;;;5.77;3.57;;;;;;;9.99;96.73;101914.50;5073146;28;20058;-84
2022/10/31 06:37:25;;;;;;;5.77;3.40;;;;;;;10.01;96.16;101912.78;5072524;28;20020;-84
2022/10/31 06:39:50;;;;;;;5.30;3.20;;;;;;;10.03;96.47;101918.81;5072220;28;20147;-84
2022/10/31 06:42:16;;;;;;;4.90;3.13;;;;;;;10.04;96.44;101927.47;5072637;28;20053;-84
2022/10/31 06:44:41;;;;;;;5.77;3.33;;;;;;;10.05;96.48;101927.47;5073421;28;20520;-83
2022/10/31 06:47:07;;;;;;;6.53;3.40;;;;;;;10.05;96.52;101926.63;5072533;28;20066;-80
2022/10/31 06:49:32;;;;;;;6.87;3.23;;;;;;;10.04;96.43;101922.28;5072327;28;20475;-86
2022/10/31 06:51:57;;;;;;;4.80;3.17;;;;;;;10.04;96.40;101915.34;5072861;28;20507;-86
2022/10/31 06:54:23;;;;;;;5.70;3.20;;;;;;;10.04;96.42;101917.09;5072689;28;20036;-87
2022/10/31 06:56:48;;;;;;;5.20;3.20;;;;;;;10.03;96.56;101910.19;5072219;28;20530;-84
2022/10/31 06:59:14;;;;;;;5.37;3.40;;;;;;;10.04;96.40;101914.50;5072401;28;20064;-84
2022/10/31 07:01:40;;;;;;;5.57;3.40;;;;;;;10.04;96.72;101915.34;5072767;28;20028;-84
2022/10/31 07:04:05;;;;;;;5.47;3.30;;;;;;;10.09;96.74;101914.53;5071962;28;20453;-83
2022/10/31 07:06:30;;;;;;;6.13;3.60;;;;;;;10.10;96.72;101908.47;5073046;28;20033;-84
2022/10/31 07:08:55;;;;;;;6.10;3.50;;;;;;;10.15;96.73;101917.13;5071705;28;20032;-83
2022/10/31 07:11:21;;;;;;;5.10;3.20;;;;;;;10.19;96.68;101905.91;5072492;28;20032;-85
2022/10/31 07:13:46;;;;;;;6.00;3.63;;;;;;;10.24;96.73;101908.53;5072977;28;20020;-86
2022/10/31 07:16:13;;;;;;;5.17;3.10;;;;;;;10.28;96.67;101908.53;5072217;28;20066;-85
2022/10/31 07:18:38;;;;;;;5.82;3.17;;;;;;;10.33;96.66;101905.94;5071822;28;20032;-85
2022/10/31 07:21:04;;;;;;;5.07;3.30;;;;;;;10.41;96.68;101913.78;5072240;28;20025;-84
2022/10/31 07:23:29;;;;;;;5.07;3.37;;;;;;;10.44;96.73;101913.81;5072722;28;20118;-85
2022/10/31 07:25:56;;;;;;;5.27;3.30;;;;;;;10.48;96.86;101919.00;5071829;28;20024;-84
2022/10/31 07:28:22;;;;;;;5.15;3.20;;;;;;;10.52;96.75;101922.47;5072647;28;20024;-85
2022/10/31 07:30:56;;;;;;;5.23;3.43;;;;;;;10.57;97.12;101922.47;5072275;28;20083;-85
2022/10/31 07:33:21;;;;;;;4.70;2.90;;;;;;;10.59;96.87;101919.00;5071980;28;20066;-85
2022/10/31 07:35:47;;;;;;;4.83;3.00;;;;;;;10.63;96.89;101920.75;5072425;28;20041;-85
2022/10/31 07:38:14;;;;;;;4.13;3.10;;;;;;;10.68;96.90;101925.97;5072066;28;20067;-85
2022/10/31 07:40:39;;;;;;;;;;;;;;;10.69;97.11;101914.72;5072328;28;20028;-85
2022/10/31 07:43:05;;;;;;;4.47;3.07;;;;;;;10.72;97.11;101919.91;5072038;28;20038;-85
2022/10/31 07:45:30;;;;;;;3.73;2.50;;;;;;;10.75;97.54;101926.84;5071766;28;20024;-84
2022/10/31 07:47:56;;;;;;;2.40;2.20;;;;;;;10.76;97.60;101926.81;5071723;28;20032;-84
2022/10/31 07:50:27;;;;;;;2.27;2.00;;;;;;;10.77;97.39;101927.72;5072279;28;20021;-86
2022/10/31 07:53:03;;;;;;;3.53;2.70;;;;;;;10.78;97.74;101921.66;5071611;28;20025;-82
2022/10/31 07:55:30;;;;;;;4.47;3.03;;;;;;;10.82;97.60;101924.25;5072654;28;20031;-82
2022/10/31 07:58:04;;;;;;;3.60;2.70;;;;;;;10.87;97.62;101932.06;5071390;28;20105;-82
2022/10/31 08:00:31;;;;;;;4.25;2.70;;;;;;;10.91;97.82;101930.31;5072057;28;20143;-82
2022/10/31 08:03:00;;;;;;;;;;;;;;;10.96;97.78;101929.44;5072170;28;20032;-82
2022/10/31 08:05:26;;;;;;;4.32;2.70;;;;;;;11.03;98.08;101935.53;5072564;28;19919;-82
2022/10/31 08:07:51;;;;;;;4.17;2.83;;;;;;;11.08;98.82;101936.41;5072411;28;20358;-82
2022/10/31 08:10:16;;;;;;;3.83;2.50;;;;;;;11.13;98.71;101937.25;5076262;28;20046;-82
2022/10/31 08:12:41;;;;;;;3.50;2.53;;;;;;;11.21;98.35;101936.38;5075675;28;20469;-82
2022/10/31 08:15:08;;;;;;;4.27;2.67;;;;;;;11.27;98.68;101937.25;5075135;28;20029;-81
2022/10/31 08:17:37;;;;;;;4.15;2.83;;;;;;;11.35;98.70;101939.84;5075704;28;20549;-81
2022/10/31 08:20:03;;;;;;;3.28;2.42;;;;;;;11.42;99.28;101938.97;5075407;28;20448;-82
2022/10/31 08:22:28;;;;;;;4.97;3.40;;;;;;;11.50;100.00;101927.69;5074647;28;20028;-81
2022/10/31 08:24:54;;;;;;;7.27;4.07;;;;;;;11.55;99.79;101937.22;5074974;28;20035;-82
2022/10/31 08:27:19;;;;;;;9.63;4.50;;;;;;;11.62;100.00;101922.47;5075825;28;20032;-81
2022/10/31 08:29:44;;;;;;;8.07;4.50;;;;;;;11.66;100.00;101920.72;5075350;28;20024;-82
2022/10/31 08:32:09;;;;;;;7.93;4.30;;;;;;;11.71;100.00;101918.97;5074931;28;20024;-82
2022/10/31 08:34:35;;;;;;;9.70;5.07;;;;;;;11.74;99.59;101935.44;5075281;28;20028;-82
2022/10/31 08:37:00;;;;;;;8.00;4.57;;;;;;;11.84;100.00;101932.81;5075238;28;20032;-82
2022/10/31 08:39:25;;;;;;;9.20;4.87;;;;;;;11.97;100.00;101925.81;5075297;28;20028;-82
2022/10/31 08:41:50;;;;;;;11.87;5.90;;;;;;;12.08;100.00;101926.69;5074788;28;20094;-81
2022/10/31 08:44:16;;;;;;;9.20;5.20;;;;;;;12.14;99.83;101926.66;5075665;28;20465;-82
2022/10/31 08:46:41;;;;;;;10.10;5.43;;;;;;;12.19;100.00;101905.81;5074899;28;20025;-82
2022/10/31 08:49:06;;;;;;;24.73;15.03;;;;;;;12.18;100.00;101883.28;5074203;28;20166;-82
2022/10/31 08:51:32;;;;;;;24.03;14.60;;;;;;;12.20;100.00;101864.16;5075500;28;20598;-82
2022/10/31 08:53:57;;;;;;;24.57;15.37;;;;;;;12.19;100.00;101877.19;5074924;28;20096;-82
2022/10/31 08:56:23;;;;;;;23.00;13.80;;;;;;;12.20;100.00;101871.13;5074518;28;20504;-82
2022/10/31 08:58:48;;;;;;;22.83;12.87;;;;;;;12.23;100.00;101865.88;5075223;28;20039;-82
2022/10/31 09:01:14;;;;;;;19.77;10.50;;;;;;;12.24;100.00;101874.56;5074969;28;20487;-82
2022/10/31 09:03:39;;;;;;;18.47;8.83;;;;;;;12.28;100.00;101891.88;5074455;28;20131;-82
2022/10/31 09:06:08;;;;;;;15.47;7.83;;;;;;;12.31;100.00;101890.16;5074335;28;20028;-82
2022/10/31 09:08:34;;;;;;;13.73;6.72;;;;;;;12.35;100.00;101888.38;5075190;28;20039;-82
2022/10/31 09:10:59;;;;;;;12.93;6.33;;;;;;;12.38;100.00;101893.59;5074215;28;20032;-82
2022/10/31 09:13:25;;;;;;;9.63;5.40;;;;;;;12.42;100.00;101886.59;5075083;28;20544;-81
2022/10/31 09:15:50;;;;;;;10.77;5.20;;;;;;;12.46;100.00;101888.31;5074550;28;20465;-82
2022/10/31 09:18:19;;;;;;;9.27;5.10;;;;;;;12.50;100.00;101880.47;5074368;28;20025;-82
2022/10/31 09:20:45;;;;;;;9.70;4.78;;;;;;;12.56;100.00;101883.91;5074640;28;20024;-82
2022/10/31 09:23:12;;;;;;;8.52;4.70;;;;;;;12.63;100.00;101907.31;5074180;28;20039;-82
2022/10/31 09:25:38;;;;;;;7.13;3.92;;;;;;;12.70;100.00;101894.22;5073829;28;20035;-82
2022/10/31 09:28:05;;;;;;;21.43;11.73;;;;;;;12.73;100.00;101871.63;5073927;28;20025;-82
2022/10/31 09:30:33;;;;;;;21.95;12.07;;;;;;;12.75;100.00;101874.22;5074937;28;20028;-82
2022/10/31 09:33:20;;;;;;;22.58;12.27;;;;;;;12.79;100.00;101855.06;5073449;28;20427;-82
2022/10/31 09:35:45;;;;;;;23.48;14.25;;;;;;;12.82;100.00;101863.75;5073846;28;20040;-82
2022/10/31 09:38:14;;;;;;;20.83;11.57;;;;;;;12.88;100.00;101844.59;5073423;28;20059;-82
2022/10/31 09:40:43;;;;;;;24.85;14.40;;;;;;;12.95;100.00;101830.63;5074494;28;20358;-82
2022/10/31 09:43:38;;;;;;;25.70;15.45;;;;;;;13.00;100.00;101834.94;5074060;28;20417;-82
2022/10/31 09:46:33;;;;;;;31.95;21.70;;;;;;;12.98;100.00;101808.88;5035055;28;20086;-82
2022/10/31 09:49:12;;;;;;;29.90;19.55;;;;;;;13.01;100.00;101828.81;5073852;28;20021;-82
2022/10/31 09:51:42;;;;;;;25.30;16.52;;;;;;;13.03;100.00;101835.78;5074375;28;20557;-82
2022/10/31 09:54:17;;;;;;;22.90;14.20;;;;;;;13.06;100.00;101846.13;5073423;28;20070;-82
2022/10/31 09:56:43;;;;;;;20.20;11.90;;;;;;;13.08;100.00;101839.19;5073353;28;20435;-82
2022/10/31 09:59:20;;;;;;;26.27;16.50;;;;;;;13.09;100.00;101835.69;5072988;28;20522;-82
2022/10/31 10:01:51;;;;;;;27.02;16.95;;;;;;;13.09;100.00;101832.25;5073843;28;20029;-82
2022/10/31 10:04:43;;;;;;;25.20;15.10;;;;;;;13.12;100.00;101834.78;5073474;28;20481;-82
2022/10/31 10:07:30;;;;;;;21.98;12.48;;;;;;;13.18;100.00;101828.66;5072997;28;20060;-82
2022/10/31 10:09:56;;;;;;;25.38;15.55;;;;;;;13.20;100.00;101817.34;5073692;28;20427;-82
2022/10/31 10:12:51;;;;;;;30.02;18.70;;;;;;;13.24;100.00;101805.16;5073840;28;20095;-81
2022/10/31 10:15:34;;;;;;;31.85;20.40;;;;;;;13.27;100.00;101798.16;5073206;28;20024;-83
2022/10/31 10:18:31;;;;;;;31.90;20.58;;;;;;;13.38;100.00;101799.75;5073217;28;20037;-81
2022/10/31 10:21:16;;;;;;;29.65;19.10;;;;;;;13.51;100.00;101795.31;5046323;28;20128;-82
2022/10/31 10:23:57;;;;;;;31.95;21.42;;;;;;;13.63;100.00;101787.31;5073474;28;20031;-83
2022/10/31 10:26:36;;;;;;;27.67;18.33;;;;;;;13.73;100.00;101786.34;5073051;28;20052;-82
2022/10/31 10:29:23;;;;;;;26.08;16.13;;;;;;;13.81;100.00;101782.75;5072796;28;20021;-82
2022/10/31 10:31:51;;;;;;;27.15;17.52;;;;;;;13.84;100.00;101769.66;5072231;28;20375;-82
2022/10/31 10:34:22;;;;;;;24.88;16.05;;;;;;;13.90;100.00;101769.56;5072979;28;20025;-83
2022/10/31 10:36:54;;;;;;;26.20;16.30;;;;;;;13.95;100.00;101759.94;5073613;28;20119;-83
2022/10/31 10:39:43;;;;;;;28.23;16.83;;;;;;;14.02;100.00;101776.34;5073013;28;20020;-83
2022/10/31 10:47:44;;;;;;;23.88;13.90;;;;;;;14.20;100.00;101770.88;5073964;28;20036;-82
2022/10/31 10:50:25;;;;;;;23.40;13.00;;;;;;;14.29;100.00;101785.53;5072368;28;20031;-81
2022/10/31 10:53:07;;;;;;;20.08;10.85;;;;;;;14.38;100.00;101781.88;5072439;28;20028;-81
2022/10/31 10:55:38;;;;;;;19.05;9.60;;;;;;;14.44;100.00;101775.69;5072512;28;20036;-81
2022/10/31 10:58:07;;;;;;;17.83;8.90;;;;;;;14.50;100.00;101771.25;5073038;28;20032;-81
2022/10/31 11:00:40;;;;;;;27.40;14.93;;;;;;;14.55;100.00;101757.25;5072804;28;20077;-81
2022/10/31 11:03:06;;;;;;;37.53;23.45;;;;;;;14.58;100.00;101754.59;5072104;28;20123;-82
2022/10/31 11:05:46;;;;;;;32.67;21.23;;;;;;;14.62;100.00;101746.69;5072353;28;20116;-81
2022/10/31 11:08:26;;;;;;;31.90;19.67;;;;;;;14.67;100.00;101757.06;5072575;28;20435;-81
2022/10/31 11:11:15;;;;;;;27.60;16.83;;;;;;;14.75;100.00;101760.41;5072123;28;20029;-81
2022/10/31 11:13:41;;;;;;;25.08;14.73;;;;;;;14.80;100.00;101755.97;5072689;28;20025;-81
2022/10/31 11:16:11;;;;;;;21.55;12.00;;;;;;;14.87;100.00;101754.06;5072517;28;20051;-82
2022/10/31 11:18:42;;;;;;;20.27;10.90;;;;;;;14.96;100.00;101747.81;5072538;28;20115;-81
2022/10/31 11:21:21;;;;;;;18.05;9.23;;;;;;;15.03;100.00;101748.56;5071882;28;20421;-81
2022/10/31 11:23:46;;;;;;;18.13;8.85;;;;;;;15.11;100.00;101742.31;5072078;28;20021;-81
2022/10/31 11:26:19;;;;;;;25.40;14.70;;;;;;;15.18;99.65;101734.31;5072606;28;20111;-82
2022/10/31 11:28:59;;;;;;;23.08;13.00;;;;;;;15.23;99.86;101716.78;5072002;28;20032;-81
2022/10/31 11:31:25;;;;;;;23.98;14.27;;;;;;;15.27;98.98;101701.00;5072275;28;20115;-81
2022/10/31 11:33:57;;;;;;;;;;;;;;;15.29;99.12;101693.13;5073053;28;20016;-81
2022/10/31 11:36:24;;;;;;;23.80;12.80;;;;;;;15.33;99.21;101696.53;5072653;28;19913;-81
2022/10/31 11:38:51;;;;;;;23.27;13.50;;;;;;;15.34;98.45;101680.81;5071185;28;20048;-81